createdAt,value
2019-01-18T00:03:24.313Z,0.00
2019-01-18T00:08:43.096Z,0.00
2019-01-18T00:14:00.931Z,0.00
2019-01-18T00:19:18.789Z,-0.10
2019-01-18T00:24:36.604Z,-0.20
2019-01-18T00:29:54.435Z,-0.20
2019-01-18T00:35:12.260Z,-0.20
2019-01-18T00:40:30.071Z,0.00
2019-01-18T00:45:47.883Z,0.00
2019-01-18T00:51:05.732Z,0.10
2019-01-18T00:56:23.555Z,0.20
2019-01-18T01:01:41.371Z,0.20
2019-01-18T01:06:59.195Z,0.30
2019-01-18T01:12:17.194Z,0.40
2019-01-18T01:17:35.046Z,0.40
2019-01-18T01:22:52.867Z,0.40
2019-01-18T01:28:10.684Z,0.40
2019-01-18T01:33:28.503Z,0.40
2019-01-18T01:38:46.748Z,0.30
2019-01-18T01:44:04.657Z,0.30
2019-01-18T01:49:22.463Z,0.30
2019-01-18T01:54:41.346Z,0.30
2019-01-18T01:59:59.163Z,0.30
2019-01-18T02:05:16.976Z,0.30
2019-01-18T02:10:34.825Z,0.30
2019-01-18T02:15:52.633Z,0.40
2019-01-18T02:21:10.445Z,0.40
2019-01-18T02:26:28.251Z,0.30
2019-01-18T02:31:46.065Z,0.30
2019-01-18T02:37:05.295Z,0.40
2019-01-18T02:42:23.103Z,0.40
2019-01-18T02:47:40.963Z,0.30
2019-01-18T02:52:58.800Z,0.30
2019-01-18T02:58:16.655Z,0.30
2019-01-18T03:03:34.455Z,0.40
2019-01-18T03:08:52.552Z,0.40
2019-01-18T03:14:10.363Z,0.40
2019-01-18T03:19:28.182Z,0.40
2019-01-18T03:24:45.996Z,0.40
2019-01-18T03:30:18.172Z,0.40
2019-01-18T03:35:26.414Z,0.40
2019-01-18T03:40:45.207Z,0.40
2019-01-18T03:46:03.022Z,0.40
2019-01-18T03:51:20.831Z,0.30
2019-01-18T03:56:38.657Z,0.20
2019-01-18T04:01:56.549Z,0.10
2019-01-18T04:07:14.362Z,0.00
2019-01-18T04:12:32.183Z,-0.10
2019-01-18T04:17:50.011Z,-0.10
2019-01-18T04:23:07.837Z,-0.10
2019-01-18T04:28:26.968Z,-0.10
2019-01-18T04:33:44.918Z,-0.10
2019-01-18T04:39:03.960Z,-0.30
2019-01-18T04:44:22.250Z,-0.40
2019-01-18T04:49:40.083Z,-0.40
2019-01-18T04:54:57.919Z,-0.20
2019-01-18T05:00:20.727Z,-0.20
2019-01-18T05:05:38.562Z,-0.30
2019-01-18T05:10:56.377Z,-0.40
2019-01-18T05:16:14.773Z,-0.60
2019-01-18T05:21:32.600Z,-0.70
2019-01-18T05:26:52.021Z,-0.70
2019-01-18T05:32:09.864Z,-0.70
2019-01-18T05:37:27.684Z,-0.70
2019-01-18T05:42:45.507Z,-0.80
2019-01-18T05:48:03.408Z,-0.80
2019-01-18T05:53:21.445Z,-0.80
2019-01-18T05:58:39.232Z,-0.90
2019-01-18T06:04:00.138Z,-0.90
2019-01-18T06:09:18.035Z,-0.90
2019-01-18T06:14:35.883Z,-0.90
2019-01-18T06:19:53.735Z,-0.90
2019-01-18T06:25:11.579Z,-0.90
2019-01-18T06:30:30.467Z,-0.90
2019-01-18T06:35:48.331Z,-0.90
2019-01-18T06:41:07.866Z,-0.90
2019-01-18T06:46:25.694Z,-0.90
2019-01-18T06:51:43.519Z,-0.90
2019-01-18T06:57:01.405Z,-0.90
2019-01-18T07:02:19.256Z,-0.90
2019-01-18T07:07:38.887Z,-0.90
2019-01-18T07:12:56.728Z,-0.90
2019-01-18T07:18:14.568Z,-1.00
2019-01-18T07:23:32.600Z,-1.10
2019-01-18T07:29:31.099Z,-1.20
2019-01-18T07:34:48.928Z,-1.20
2019-01-18T07:40:08.996Z,-1.20
2019-01-18T07:45:28.967Z,-1.20
2019-01-18T07:50:46.786Z,-1.30
2019-01-18T07:56:04.612Z,-1.30
2019-01-18T08:01:22.465Z,-1.40
2019-01-18T08:06:40.658Z,-1.50
2019-01-18T08:11:58.482Z,-1.50
2019-01-18T08:17:16.376Z,-1.70
2019-01-18T08:22:34.261Z,0.10
2019-01-18T08:27:52.082Z,-0.40
2019-01-18T08:33:10.034Z,-0.70
2019-01-18T08:38:28.792Z,2.30
2019-01-18T08:43:46.696Z,5.60
2019-01-18T08:49:05.259Z,6.80
2019-01-18T08:54:23.633Z,5.90
2019-01-18T08:59:41.629Z,4.30
2019-01-18T09:05:00.231Z,4.50
2019-01-18T09:10:20.368Z,4.30
2019-01-18T09:15:38.670Z,2.80
2019-01-18T09:20:56.537Z,1.90
2019-01-18T09:26:15.007Z,1.40
2019-01-18T09:31:35.571Z,0.80
2019-01-18T09:36:53.451Z,0.50
2019-01-18T09:42:11.265Z,0.50
2019-01-18T09:47:29.074Z,0.50
2019-01-18T09:52:47.031Z,0.70
2019-01-18T09:58:04.919Z,0.70
2019-01-18T10:03:22.736Z,0.70
2019-01-18T10:08:40.556Z,0.60
2019-01-18T10:13:58.375Z,0.50
2019-01-18T10:19:16.263Z,0.30
2019-01-18T10:24:34.080Z,0.10
2019-01-18T10:29:51.966Z,0.10
2019-01-18T10:35:09.787Z,0.30
2019-01-18T10:40:27.639Z,0.30
2019-01-18T10:45:45.460Z,0.30
2019-01-18T10:51:03.276Z,0.30
2019-01-18T10:56:21.090Z,0.50
2019-01-18T11:01:38.963Z,1.00
2019-01-18T11:06:56.784Z,1.10
2019-01-18T11:12:14.600Z,1.00
2019-01-18T11:17:32.413Z,1.10
2019-01-18T11:22:51.052Z,1.30
2019-01-18T11:28:08.916Z,1.10
2019-01-18T11:33:26.727Z,1.10
2019-01-18T11:38:44.770Z,1.40
2019-01-18T11:44:02.907Z,1.60
2019-01-18T11:49:20.822Z,2.90
2019-01-18T11:54:38.659Z,4.40
2019-01-18T11:59:56.489Z,4.30
2019-01-18T12:05:14.339Z,3.30
2019-01-18T12:10:32.778Z,2.80
2019-01-18T12:15:50.600Z,2.70
2019-01-18T12:21:08.415Z,2.40
2019-01-18T12:26:26.229Z,2.30
2019-01-18T12:31:44.092Z,2.10
2019-01-18T12:37:01.874Z,2.20
2019-01-18T12:42:20.063Z,2.30
2019-01-18T12:47:37.899Z,2.30
2019-01-18T12:52:55.860Z,2.20
2019-01-18T12:58:13.694Z,1.70
2019-01-18T13:03:31.506Z,1.20
2019-01-18T13:08:49.328Z,0.90
2019-01-18T13:14:08.913Z,0.60
2019-01-18T13:19:26.947Z,0.20
2019-01-18T13:24:44.819Z,0.00
2019-01-18T13:30:02.799Z,-0.20
2019-01-18T13:35:20.620Z,-0.30
2019-01-18T13:40:38.435Z,-0.40
2019-01-18T13:45:56.256Z,-0.40
2019-01-18T13:51:14.098Z,-0.50
2019-01-18T13:56:31.920Z,-0.50
2019-01-18T14:01:49.942Z,-0.70
2019-01-18T14:07:07.764Z,-0.80
2019-01-18T14:12:25.590Z,-0.90
2019-01-18T14:17:43.417Z,-1.00
2019-01-18T14:23:01.257Z,-1.00
2019-01-18T14:28:20.024Z,-1.10
2019-01-18T14:33:38.484Z,-1.10
2019-01-18T14:38:56.358Z,-1.10
2019-01-18T14:44:14.167Z,-1.20
2019-01-18T14:49:32.650Z,-1.30
2019-01-18T14:54:50.559Z,-1.40
2019-01-18T15:00:20.907Z,-1.50
2019-01-18T15:05:38.735Z,-1.60
2019-01-18T15:10:56.565Z,-1.80
2019-01-18T15:16:14.387Z,-1.90
2019-01-18T15:21:32.215Z,-2.00
2019-01-18T15:26:50.072Z,-2.00
2019-01-18T15:32:07.924Z,-2.10
2019-01-18T15:37:26.090Z,-2.20
2019-01-18T15:42:43.938Z,-2.40
2019-01-18T15:48:01.772Z,-2.50
2019-01-18T15:53:19.611Z,-2.60
2019-01-18T15:58:37.472Z,-2.80
2019-01-18T16:03:55.322Z,-3.00
2019-01-18T16:09:13.210Z,-3.20
2019-01-18T16:14:31.136Z,-3.20
2019-01-18T16:19:48.963Z,-3.30
2019-01-18T16:25:10.068Z,-3.10
2019-01-18T16:30:28.597Z,-3.00
2019-01-18T16:35:46.414Z,-3.10
2019-01-18T16:41:04.404Z,-3.00
2019-01-18T16:46:22.344Z,-3.00
2019-01-18T16:51:40.180Z,-3.00
2019-01-18T16:56:58.009Z,-3.00
2019-01-18T17:02:15.836Z,-3.20
2019-01-18T17:07:33.660Z,-3.30
2019-01-18T17:12:51.491Z,-3.40
2019-01-18T17:18:09.324Z,-3.40
2019-01-18T17:23:27.152Z,-3.40
2019-01-18T17:28:44.992Z,-3.50
2019-01-18T17:34:02.824Z,-3.50
2019-01-18T17:39:35.495Z,-3.50
2019-01-18T17:45:08.303Z,-3.70
2019-01-18T17:50:32.242Z,-3.70
2019-01-18T17:55:59.210Z,-3.70
2019-01-18T18:01:52.309Z,-3.80
2019-01-18T18:07:16.260Z,-3.90
2019-01-18T18:12:53.875Z,-4.00
2019-01-18T18:18:17.741Z,-4.10
2019-01-18T18:23:38.887Z,-4.10
2019-01-18T18:29:15.186Z,-4.20
2019-01-18T18:35:10.091Z,-4.30
2019-01-18T18:40:34.038Z,-4.30
2019-01-18T18:46:10.410Z,-4.30
2019-01-18T18:52:01.824Z,-4.40
2019-01-18T18:57:29.988Z,-4.50
2019-01-18T19:03:03.140Z,-4.40
2019-01-18T19:08:35.557Z,-4.40
2019-01-18T19:14:21.113Z,-4.60
2019-01-18T19:19:57.546Z,-4.70
2019-01-18T19:25:24.635Z,-4.90
2019-01-18T19:31:09.461Z,-4.90
2019-01-18T19:36:33.256Z,-4.80
2019-01-18T19:42:09.319Z,-4.80
2019-01-18T19:47:48.461Z,-4.90
2019-01-18T19:53:21.521Z,-4.90
2019-01-18T19:58:42.642Z,-4.80
2019-01-18T20:04:03.760Z,-4.90
2019-01-18T20:09:41.819Z,-5.00
2019-01-18T20:15:08.658Z,-5.10
2019-01-18T20:20:41.725Z,-5.20
2019-01-18T20:26:14.828Z,-5.40
2019-01-18T20:31:38.995Z,-5.50
2019-01-18T20:37:09.342Z,-5.60
2019-01-18T20:42:53.486Z,-5.70
2019-01-18T20:48:23.824Z,-5.70
2019-01-18T20:54:05.633Z,-5.70
2019-01-18T20:59:32.687Z,-5.70
2019-01-18T21:05:12.252Z,-5.70
2019-01-18T21:10:48.478Z,-5.80
2019-01-18T21:16:40.891Z,-5.90
2019-01-18T21:22:29.584Z,-5.90
2019-01-18T21:28:10.403Z,-6.00
2019-01-18T21:33:52.342Z,-6.10
2019-01-18T21:39:30.849Z,-6.20
2019-01-18T21:45:14.223Z,-6.50
2019-01-18T21:50:56.698Z,-6.70
2019-01-18T21:56:37.346Z,-6.90
2019-01-18T22:02:20.549Z,-6.80
2019-01-18T22:08:01.501Z,-6.60
2019-01-18T22:13:24.791Z,-6.50
2019-01-18T22:18:49.307Z,-6.60
2019-01-18T22:24:17.723Z,-6.40
2019-01-18T22:30:01.776Z,-6.40
2019-01-18T22:35:33.947Z,-6.40
2019-01-18T22:41:03.252Z,-6.40
2019-01-18T22:46:38.686Z,-6.30
2019-01-18T22:52:26.747Z,-6.20
2019-01-18T22:57:53.616Z,-6.10
2019-01-18T23:03:21.293Z,-6.30
2019-01-18T23:09:07.980Z,-6.40
2019-01-18T23:14:56.949Z,-6.40
2019-01-18T23:20:46.881Z,-6.40
2019-01-18T23:26:20.316Z,-6.40
2019-01-18T23:31:41.403Z,-6.40
2019-01-18T23:37:05.344Z,-6.50
2019-01-18T23:42:35.392Z,-6.60
2019-01-18T23:48:05.408Z,-6.60
2019-01-18T23:53:44.495Z,-6.60
2019-01-18T23:59:07.293Z,-6.70
